createdAt,value
2022-08-14T00:00:20.603Z,18.21
2022-08-14T00:01:24.058Z,18.12
2022-08-14T00:02:20.669Z,18.12
2022-08-14T00:03:20.535Z,18.12
2022-08-14T00:04:34.599Z,18.15
2022-08-14T00:05:20.493Z,18.10
2022-08-14T00:06:28.381Z,18.06
2022-08-14T00:07:20.448Z,18.06
2022-08-14T00:08:43.718Z,17.97
2022-08-14T00:09:20.404Z,18.15
2022-08-14T00:10:49.703Z,18.17
2022-08-14T00:11:20.358Z,18.03
2022-08-14T00:12:24.442Z,17.89
2022-08-14T00:13:20.313Z,17.88
2022-08-14T00:14:20.292Z,17.87
2022-08-14T00:15:20.269Z,17.85
2022-08-14T00:16:41.485Z,17.74
2022-08-14T00:17:20.225Z,17.62
2022-08-14T00:18:30.926Z,17.55
2022-08-14T00:19:21.282Z,17.62
2022-08-14T00:20:23.856Z,17.62
2022-08-14T00:21:20.131Z,17.53
2022-08-14T00:22:44.348Z,17.48
2022-08-14T00:23:20.450Z,17.62
2022-08-14T00:24:28.149Z,17.57
2022-08-14T00:25:20.043Z,17.71
2022-08-14T00:26:21.967Z,17.87
2022-08-14T00:27:19.995Z,17.84
2022-08-14T00:28:19.974Z,17.94
2022-08-14T00:29:19.950Z,18.07
2022-08-14T00:30:19.929Z,18.19
2022-08-14T00:31:19.904Z,18.27
2022-08-14T00:32:52.079Z,18.28
2022-08-14T00:33:19.870Z,18.31
2022-08-14T00:34:35.169Z,18.33
2022-08-14T00:35:19.814Z,18.36
2022-08-14T00:36:35.190Z,18.42
2022-08-14T00:37:19.771Z,18.39
2022-08-14T00:38:19.750Z,18.37
2022-08-14T00:39:19.772Z,18.42
2022-08-14T00:40:32.944Z,18.46
2022-08-14T00:41:19.681Z,18.40
2022-08-14T00:42:21.264Z,18.31
2022-08-14T00:43:19.634Z,18.39
2022-08-14T00:44:21.329Z,18.27
2022-08-14T00:45:19.588Z,18.24
2022-08-14T00:46:30.137Z,18.19
2022-08-14T00:47:19.544Z,18.18
2022-08-14T00:48:34.292Z,18.13
2022-08-14T00:49:21.136Z,18.07
2022-08-14T00:50:19.473Z,18.04
2022-08-14T00:51:19.451Z,18.06
2022-08-14T00:52:19.429Z,17.94
2022-08-14T00:53:19.408Z,18.02
2022-08-14T00:54:21.687Z,17.91
2022-08-14T00:55:19.361Z,17.84
2022-08-14T00:56:19.338Z,17.81
2022-08-14T00:57:19.316Z,17.74
2022-08-14T00:58:19.293Z,17.76
2022-08-14T00:59:19.272Z,17.62
2022-08-14T01:00:37.480Z,17.64
2022-08-14T01:01:19.294Z,17.57
2022-08-14T01:02:20.031Z,17.57
2022-08-14T01:03:19.179Z,17.54
2022-08-14T01:04:38.257Z,17.48
2022-08-14T01:05:19.135Z,17.43
2022-08-14T01:06:19.110Z,17.44
2022-08-14T01:07:19.089Z,17.32
2022-08-14T01:08:50.605Z,17.33
2022-08-14T01:09:19.041Z,17.22
2022-08-14T01:10:19.018Z,17.18
2022-08-14T01:11:19.689Z,17.17
2022-08-14T01:12:26.810Z,17.04
2022-08-14T01:13:18.950Z,17.00
2022-08-14T01:14:27.484Z,17.03
2022-08-14T01:15:18.903Z,17.00
2022-08-14T01:16:19.408Z,17.03
2022-08-14T01:17:18.858Z,16.93
2022-08-14T01:18:18.837Z,16.85
2022-08-14T01:19:19.667Z,16.90
2022-08-14T01:20:27.325Z,16.81
2022-08-14T01:21:18.767Z,16.80
2022-08-14T01:22:19.298Z,16.88
2022-08-14T01:23:19.239Z,16.83
2022-08-14T01:24:24.858Z,16.77
2022-08-14T01:25:18.677Z,16.70
2022-08-14T01:26:23.527Z,16.77
2022-08-14T01:27:18.779Z,16.71
2022-08-14T01:28:46.627Z,16.71
2022-08-14T01:29:42.096Z,16.70
2022-08-14T01:30:20.910Z,16.73
2022-08-14T01:31:18.540Z,16.68
2022-08-14T01:32:23.004Z,16.73
2022-08-14T01:33:18.514Z,16.67
2022-08-14T01:35:19.828Z,16.56
2022-08-14T01:36:05.028Z,16.59
2022-08-14T01:36:22.740Z,16.63
2022-08-14T01:37:18.401Z,16.62
2022-08-14T01:38:18.378Z,16.60
2022-08-14T01:39:18.423Z,16.65
2022-08-14T01:40:20.030Z,16.62
2022-08-14T01:41:18.307Z,16.62
2022-08-14T01:42:32.241Z,16.52
2022-08-14T01:43:18.781Z,16.58
2022-08-14T01:44:31.318Z,16.50
2022-08-14T01:45:25.423Z,16.53
2022-08-14T01:46:24.451Z,16.49
2022-08-14T01:47:22.256Z,16.42
2022-08-14T01:48:20.673Z,16.41
2022-08-14T01:49:18.125Z,16.49
2022-08-14T01:50:18.102Z,16.53
2022-08-14T01:51:19.924Z,16.62
2022-08-14T01:52:33.977Z,16.62
2022-08-14T01:53:18.032Z,16.59
2022-08-14T01:54:18.010Z,16.73
2022-08-14T01:55:17.986Z,16.78
2022-08-14T01:56:18.394Z,16.85
2022-08-14T01:57:17.938Z,16.83
2022-08-14T01:58:19.995Z,16.96
2022-08-14T01:59:18.610Z,16.93
2022-08-14T02:00:18.149Z,16.92
2022-08-14T02:01:17.920Z,16.92
2022-08-14T02:02:19.934Z,16.95
2022-08-14T02:03:17.799Z,16.99
2022-08-14T02:04:20.733Z,16.88
2022-08-14T02:05:17.753Z,16.88
2022-08-14T02:06:32.624Z,16.80
2022-08-14T02:07:17.708Z,16.88
2022-08-14T02:08:22.252Z,16.73
2022-08-14T02:09:19.118Z,16.70
2022-08-14T02:10:17.985Z,16.71
2022-08-14T02:11:18.538Z,16.58
2022-08-14T02:12:19.677Z,16.62
2022-08-14T02:13:17.572Z,16.65
2022-08-14T02:14:31.770Z,16.58
2022-08-14T02:15:17.523Z,16.55
2022-08-14T02:16:22.578Z,16.50
2022-08-14T02:17:17.477Z,16.56
2022-08-14T02:18:18.156Z,16.55
2022-08-14T02:19:17.430Z,16.55
2022-08-14T02:20:17.407Z,16.58
2022-08-14T02:21:17.386Z,16.63
2022-08-14T02:22:17.360Z,16.59
2022-08-14T02:23:29.138Z,16.58
2022-08-14T02:24:39.229Z,16.58
2022-08-14T02:25:17.291Z,16.65
2022-08-14T02:26:18.179Z,16.70
2022-08-14T02:28:22.109Z,16.80
2022-08-14T02:28:22.670Z,16.85
2022-08-14T02:29:17.196Z,16.89
2022-08-14T02:30:17.172Z,16.81
2022-08-14T02:31:17.166Z,16.90
2022-08-14T02:32:29.889Z,16.92
2022-08-14T02:33:17.103Z,16.92
2022-08-14T02:34:22.065Z,16.95
2022-08-14T02:35:17.616Z,16.95
2022-08-14T02:37:05.129Z,16.96
2022-08-14T02:37:17.010Z,16.92
2022-08-14T02:38:29.937Z,16.90
2022-08-14T02:39:16.989Z,16.86
2022-08-14T02:40:16.938Z,16.89
2022-08-14T02:41:16.916Z,16.86
2022-08-14T02:42:16.892Z,16.75
2022-08-14T02:43:16.869Z,16.70
2022-08-14T02:44:16.847Z,16.68
2022-08-14T02:45:17.585Z,16.58
2022-08-14T02:46:20.490Z,16.62
2022-08-14T02:47:19.294Z,16.60
2022-08-14T02:49:03.484Z,16.65
2022-08-14T02:49:16.731Z,16.68
2022-08-14T02:50:16.708Z,16.68
2022-08-14T02:51:16.684Z,16.74
2022-08-14T02:52:26.929Z,16.78
2022-08-14T02:53:16.639Z,16.81
2022-08-14T02:54:19.610Z,16.86
2022-08-14T02:55:20.417Z,16.86
2022-08-14T02:56:30.411Z,16.78
2022-08-14T02:57:40.254Z,16.77
2022-08-14T02:58:29.342Z,16.86
2022-08-14T02:59:16.496Z,16.86
2022-08-14T03:00:18.551Z,16.88
2022-08-14T03:01:16.538Z,16.75
2022-08-14T03:02:33.553Z,16.67
2022-08-14T03:03:16.402Z,16.59
2022-08-14T03:04:17.651Z,16.58
2022-08-14T03:05:16.356Z,16.63
2022-08-14T03:06:20.583Z,16.56
2022-08-14T03:07:17.076Z,16.55
2022-08-14T03:08:18.921Z,16.48
2022-08-14T03:09:16.261Z,16.38
2022-08-14T03:10:26.346Z,16.40
2022-08-14T03:11:16.214Z,16.40
2022-08-14T03:12:27.073Z,16.38
2022-08-14T03:13:19.345Z,16.44
2022-08-14T03:14:18.003Z,16.42
2022-08-14T03:15:16.473Z,16.42
2022-08-14T03:16:19.751Z,16.59
2022-08-14T03:17:16.075Z,16.67
2022-08-14T03:18:18.486Z,16.68
2022-08-14T03:19:16.030Z,16.75
2022-08-14T03:20:16.004Z,16.68
2022-08-14T03:21:15.982Z,16.71
2022-08-14T03:22:17.513Z,16.59
2022-08-14T03:23:15.934Z,16.63
2022-08-14T03:24:21.670Z,16.56
2022-08-14T03:25:15.888Z,16.58
2022-08-14T03:26:18.358Z,16.49
2022-08-14T03:27:15.840Z,16.42
2022-08-14T03:28:33.042Z,16.37
2022-08-14T03:29:15.793Z,16.30
2022-08-14T03:30:15.769Z,16.31
2022-08-14T03:31:15.746Z,16.37
2022-08-14T03:32:15.719Z,16.27
2022-08-14T03:33:15.698Z,16.26
2022-08-14T03:34:24.604Z,16.18
2022-08-14T03:35:15.649Z,16.09
2022-08-14T03:37:15.602Z,15.99
2022-08-14T03:37:51.662Z,16.04
2022-08-14T03:39:14.763Z,16.06
2022-08-14T03:39:22.486Z,15.97
2022-08-14T03:40:18.194Z,15.92
2022-08-14T03:41:15.507Z,15.96
2022-08-14T03:42:19.344Z,15.96
2022-08-14T03:43:15.459Z,15.82
2022-08-14T03:45:25.402Z,15.92
2022-08-14T03:45:25.561Z,15.89
2022-08-14T03:46:51.869Z,15.96
2022-08-14T03:47:15.674Z,15.92
2022-08-14T03:48:30.156Z,15.94
2022-08-14T03:49:15.320Z,15.92
2022-08-14T03:50:15.295Z,15.94
2022-08-14T03:51:15.271Z,15.88
2022-08-14T03:52:37.962Z,15.92
2022-08-14T03:53:15.224Z,15.94
2022-08-14T03:54:20.423Z,15.96
2022-08-14T03:55:15.176Z,15.88
2022-08-14T03:56:15.149Z,15.93
2022-08-14T03:57:15.129Z,15.96
2022-08-14T03:58:23.778Z,16.01
2022-08-14T03:59:17.878Z,15.99
2022-08-14T04:00:42.603Z,16.01
2022-08-14T04:01:15.062Z,16.01
2022-08-14T04:02:33.122Z,16.07
2022-08-14T04:03:23.447Z,16.06
2022-08-14T04:04:14.961Z,16.03
2022-08-14T04:05:16.630Z,16.04
2022-08-14T04:06:21.026Z,15.94
2022-08-14T04:07:14.890Z,15.99
2022-08-14T04:08:29.790Z,15.99
2022-08-14T04:09:14.842Z,15.86
2022-08-14T04:10:17.238Z,15.81
2022-08-14T04:11:14.794Z,15.70
2022-08-14T04:12:14.769Z,15.70
2022-08-14T04:13:14.747Z,15.72
2022-08-14T04:14:15.317Z,15.70
2022-08-14T04:15:14.698Z,15.79
2022-08-14T04:16:14.676Z,15.79
2022-08-14T04:17:14.650Z,15.79
2022-08-14T04:18:14.627Z,15.72
2022-08-14T04:19:14.605Z,15.92
2022-08-14T04:20:14.579Z,15.82
2022-08-14T04:21:14.762Z,15.79
2022-08-14T04:22:14.529Z,15.78
2022-08-14T04:23:18.518Z,15.82
2022-08-14T04:24:14.480Z,15.79
2022-08-14T04:25:14.457Z,15.68
2022-08-14T04:26:27.291Z,15.68
2022-08-14T04:27:16.697Z,15.72
2022-08-14T04:29:05.294Z,15.61
2022-08-14T04:29:14.439Z,15.60
2022-08-14T04:30:30.732Z,15.57
2022-08-14T04:31:15.417Z,15.52
2022-08-14T04:33:02.299Z,15.51
2022-08-14T04:33:20.665Z,15.48
2022-08-14T04:34:20.865Z,15.45
2022-08-14T04:35:14.217Z,15.48
2022-08-14T04:36:16.019Z,15.42
2022-08-14T04:37:22.020Z,15.46
2022-08-14T04:38:36.409Z,15.48
2022-08-14T04:39:14.126Z,15.49
2022-08-14T04:40:15.143Z,15.42
2022-08-14T04:41:14.078Z,15.48
2022-08-14T04:42:14.261Z,15.46
2022-08-14T04:43:14.442Z,15.46
2022-08-14T04:44:36.233Z,15.49
2022-08-14T04:45:13.981Z,15.43
2022-08-14T04:46:56.850Z,15.52
2022-08-14T04:47:13.932Z,15.48
2022-08-14T04:48:13.907Z,15.45
2022-08-14T04:49:15.174Z,15.48
2022-08-14T04:50:13.860Z,15.46
2022-08-14T04:51:13.845Z,15.42
2022-08-14T04:52:15.199Z,15.42
2022-08-14T04:53:13.815Z,15.54
2022-08-14T04:54:13.778Z,15.60
2022-08-14T04:55:13.740Z,15.63
2022-08-14T04:56:30.772Z,15.75
2022-08-14T04:57:13.692Z,15.59
2022-08-14T04:58:21.220Z,15.59
2022-08-14T04:59:13.643Z,15.54
2022-08-14T05:00:16.218Z,15.57
2022-08-14T05:01:19.412Z,15.60
2022-08-14T05:02:13.645Z,15.52
2022-08-14T05:03:13.548Z,15.61
2022-08-14T05:04:16.130Z,15.59
2022-08-14T05:05:13.500Z,15.57
2022-08-14T05:06:37.677Z,15.56
2022-08-14T05:07:13.452Z,15.60
2022-08-14T05:08:32.099Z,15.60
2022-08-14T05:09:14.042Z,15.72
2022-08-14T05:10:16.487Z,15.68
2022-08-14T05:11:13.641Z,15.68
2022-08-14T05:13:11.003Z,15.68
2022-08-14T05:13:15.794Z,15.68
2022-08-14T05:14:33.724Z,15.81
2022-08-14T05:15:13.258Z,15.74
2022-08-14T05:16:13.235Z,15.79
2022-08-14T05:17:13.211Z,15.81
2022-08-14T05:18:17.680Z,15.93
2022-08-14T05:19:18.304Z,15.93
2022-08-14T05:21:04.093Z,16.00
2022-08-14T05:21:58.224Z,15.96
2022-08-14T05:22:17.053Z,15.96
2022-08-14T05:23:13.066Z,16.01
2022-08-14T05:24:17.478Z,16.06
2022-08-14T05:25:13.020Z,16.03
2022-08-14T05:26:12.997Z,15.97
2022-08-14T05:27:12.972Z,16.12
2022-08-14T05:28:16.170Z,16.16
2022-08-14T05:29:12.924Z,16.16
2022-08-14T05:30:12.901Z,16.09
2022-08-14T05:31:12.876Z,16.15
2022-08-14T05:32:12.853Z,16.15
2022-08-14T05:33:12.831Z,16.18
2022-08-14T05:34:12.806Z,16.14
2022-08-14T05:35:12.780Z,16.14
2022-08-14T05:36:16.712Z,16.20
2022-08-14T05:37:12.733Z,16.22
2022-08-14T05:38:31.365Z,16.18
2022-08-14T05:39:12.685Z,16.27
2022-08-14T05:40:12.660Z,16.18
2022-08-14T05:41:12.637Z,16.26
2022-08-14T05:42:21.580Z,16.26
2022-08-14T05:43:12.586Z,16.23
2022-08-14T05:44:12.564Z,16.31
2022-08-14T05:45:13.761Z,16.34
2022-08-14T05:46:12.515Z,16.34
2022-08-14T05:47:12.490Z,16.27
2022-08-14T05:48:12.467Z,16.31
2022-08-14T05:49:12.442Z,16.34
2022-08-14T05:50:17.405Z,16.33
2022-08-14T05:51:12.395Z,16.35
2022-08-14T05:52:12.371Z,16.37
2022-08-14T05:53:12.346Z,16.31
2022-08-14T05:54:26.748Z,16.41
2022-08-14T05:55:12.359Z,16.37
2022-08-14T05:56:12.276Z,16.41
2022-08-14T05:57:12.252Z,16.49
2022-08-14T05:58:12.229Z,16.56
2022-08-14T05:59:12.203Z,16.62
2022-08-14T06:00:12.184Z,16.56
2022-08-14T06:01:12.201Z,16.58
2022-08-14T06:02:12.133Z,16.70
2022-08-14T06:03:12.108Z,16.71
2022-08-14T06:04:12.583Z,16.71
2022-08-14T06:05:12.066Z,16.74
2022-08-14T06:06:12.035Z,16.86
2022-08-14T06:07:12.009Z,16.89
2022-08-14T06:08:31.374Z,16.92
2022-08-14T06:09:11.962Z,16.89
2022-08-14T06:10:11.943Z,17.00
2022-08-14T06:11:14.827Z,17.07
2022-08-14T06:12:12.194Z,17.07
2022-08-14T06:13:11.870Z,17.08
2022-08-14T06:14:20.700Z,17.08
2022-08-14T06:15:11.821Z,17.15
2022-08-14T06:16:11.803Z,17.10
2022-08-14T06:17:15.669Z,17.32
2022-08-14T06:18:11.751Z,17.29
2022-08-14T06:19:15.509Z,17.32
2022-08-14T06:20:11.703Z,17.29
2022-08-14T06:21:13.569Z,17.44
2022-08-14T06:22:11.656Z,17.38
2022-08-14T06:23:11.631Z,17.57
2022-08-14T06:24:18.709Z,17.55
2022-08-14T06:25:11.584Z,17.70
2022-08-14T06:26:11.562Z,17.66
2022-08-14T06:27:11.536Z,17.69
2022-08-14T06:28:27.562Z,17.73
2022-08-14T06:29:11.488Z,17.87
2022-08-14T06:30:11.466Z,17.88
2022-08-14T06:31:11.443Z,17.81
2022-08-14T06:32:38.377Z,17.84
2022-08-14T06:33:11.395Z,17.89
2022-08-14T06:35:11.453Z,17.97
2022-08-14T06:35:13.377Z,17.88
2022-08-14T06:36:11.468Z,17.92
2022-08-14T06:37:11.300Z,18.00
2022-08-14T06:38:15.406Z,18.07
2022-08-14T06:39:11.253Z,18.15
2022-08-14T06:40:16.673Z,18.15
2022-08-14T06:41:11.207Z,18.22
2022-08-14T06:42:32.370Z,18.34
2022-08-14T06:43:11.159Z,18.36
2022-08-14T06:44:11.139Z,18.40
2022-08-14T06:45:11.115Z,18.43
2022-08-14T06:46:23.119Z,18.55
2022-08-14T06:47:11.068Z,18.64
2022-08-14T06:48:12.724Z,18.64
2022-08-14T06:49:11.022Z,18.64
2022-08-14T06:50:11.058Z,18.67
2022-08-14T06:51:10.975Z,18.62
2022-08-14T06:52:10.953Z,18.74
2022-08-14T06:53:10.930Z,18.76
2022-08-14T06:54:10.909Z,18.76
2022-08-14T06:55:10.883Z,18.74
2022-08-14T06:56:10.861Z,18.86
2022-08-14T06:57:10.837Z,18.92
2022-08-14T06:58:24.789Z,18.91
2022-08-14T06:59:15.735Z,18.95
2022-08-14T07:00:22.200Z,18.95
2022-08-14T07:01:10.782Z,18.99
2022-08-14T07:02:13.660Z,19.06
2022-08-14T07:03:12.228Z,19.08
2022-08-14T07:04:23.076Z,19.11
2022-08-14T07:05:10.651Z,19.05
2022-08-14T07:06:21.233Z,19.11
2022-08-14T07:07:10.604Z,19.14
2022-08-14T07:08:10.584Z,19.18
2022-08-14T07:09:10.560Z,19.24
2022-08-14T07:10:13.270Z,19.33
2022-08-14T07:11:10.513Z,19.36
2022-08-14T07:12:56.415Z,19.43
2022-08-14T07:13:10.974Z,19.39
2022-08-14T07:14:10.446Z,19.43
2022-08-14T07:15:10.421Z,19.54
2022-08-14T07:16:10.402Z,19.55
2022-08-14T07:17:10.380Z,19.47
2022-08-14T07:18:10.358Z,19.55
2022-08-14T07:19:10.332Z,19.61
2022-08-14T07:20:10.310Z,19.53
2022-08-14T07:21:10.287Z,19.48
2022-08-14T07:22:17.771Z,19.65
2022-08-14T07:23:11.007Z,19.73
2022-08-14T07:24:22.050Z,19.69
2022-08-14T07:25:10.196Z,19.90
2022-08-14T07:26:10.332Z,19.83
2022-08-14T07:27:10.151Z,20.05
2022-08-14T07:28:10.130Z,19.94
2022-08-14T07:29:10.106Z,19.93
2022-08-14T07:30:34.361Z,19.97
2022-08-14T07:31:10.061Z,19.97
2022-08-14T07:32:10.038Z,20.00
2022-08-14T07:33:10.014Z,20.05
2022-08-14T07:34:11.461Z,20.13
2022-08-14T07:35:09.970Z,20.28
2022-08-14T07:36:27.465Z,20.28
2022-08-14T07:37:10.050Z,20.33
2022-08-14T07:38:09.910Z,20.34
2022-08-14T07:39:13.172Z,20.34
2022-08-14T07:40:09.923Z,20.31
2022-08-14T07:41:14.859Z,20.33
2022-08-14T07:42:09.815Z,20.47
2022-08-14T07:43:14.633Z,20.49
2022-08-14T07:44:33.066Z,20.47
2022-08-14T07:45:09.747Z,20.47
2022-08-14T07:46:09.726Z,20.51
2022-08-14T07:47:09.703Z,20.59
2022-08-14T07:48:16.363Z,20.53
2022-08-14T07:49:09.661Z,20.54
2022-08-14T07:50:09.640Z,20.50
2022-08-14T07:51:10.766Z,20.50
2022-08-14T07:52:09.595Z,20.64
2022-08-14T07:53:09.572Z,20.66
2022-08-14T07:54:11.052Z,20.59
2022-08-14T07:55:09.527Z,20.62
2022-08-14T07:56:21.844Z,20.81
2022-08-14T07:57:12.661Z,20.84
2022-08-14T07:58:33.899Z,20.87
2022-08-14T07:59:09.440Z,21.05
2022-08-14T08:00:09.420Z,21.06
2022-08-14T08:01:09.397Z,21.08
2022-08-14T08:02:09.376Z,21.06
2022-08-14T08:03:09.423Z,21.11
2022-08-14T08:04:18.665Z,21.16
2022-08-14T08:05:09.307Z,21.14
2022-08-14T08:06:10.518Z,21.19
2022-08-14T08:07:09.264Z,21.24
2022-08-14T08:08:26.859Z,21.38
2022-08-14T08:09:09.220Z,21.39
2022-08-14T08:10:09.200Z,21.41
2022-08-14T08:11:14.879Z,21.51
2022-08-14T08:12:14.242Z,21.46
2022-08-14T08:13:09.139Z,21.50
2022-08-14T08:14:10.513Z,21.48
2022-08-14T08:15:09.091Z,21.63
2022-08-14T08:16:09.071Z,21.66
2022-08-14T08:17:09.049Z,21.61
2022-08-14T08:18:09.030Z,21.61
2022-08-14T08:19:12.726Z,21.72
2022-08-14T08:20:09.148Z,21.72
2022-08-14T08:21:08.962Z,21.79
2022-08-14T08:22:08.942Z,21.82
2022-08-14T08:23:08.919Z,21.78
2022-08-14T08:24:08.899Z,21.66
2022-08-14T08:25:13.794Z,21.78
2022-08-14T08:26:08.857Z,21.88
2022-08-14T08:27:08.836Z,21.83
2022-08-14T08:28:08.982Z,21.88
2022-08-14T08:29:08.793Z,21.92
2022-08-14T08:30:10.024Z,22.04
2022-08-14T08:31:08.748Z,22.02
2022-08-14T08:32:08.729Z,22.10
2022-08-14T08:33:08.707Z,21.97
2022-08-14T08:34:14.377Z,22.02
2022-08-14T08:35:08.667Z,22.07
2022-08-14T08:36:12.701Z,22.19
2022-08-14T08:37:08.624Z,22.29
2022-08-14T08:39:15.555Z,22.20
2022-08-14T08:39:16.486Z,22.16
2022-08-14T08:40:08.654Z,22.16
2022-08-14T08:41:09.626Z,22.14
2022-08-14T08:42:08.520Z,22.19
2022-08-14T08:43:08.497Z,22.20
2022-08-14T08:44:17.520Z,22.22
2022-08-14T08:45:12.383Z,22.28
2022-08-14T08:46:08.437Z,22.28
2022-08-14T08:47:08.414Z,22.25
2022-08-14T08:48:18.330Z,22.32
2022-08-14T08:49:08.373Z,22.41
2022-08-14T08:50:20.383Z,22.41
2022-08-14T08:51:08.330Z,22.44
2022-08-14T08:52:15.144Z,22.53
2022-08-14T08:53:08.288Z,22.57
2022-08-14T08:54:11.859Z,22.59
2022-08-14T08:55:08.244Z,22.68
2022-08-14T08:56:08.225Z,22.65
2022-08-14T08:57:08.203Z,22.67
2022-08-14T08:58:16.024Z,22.83
2022-08-14T08:59:08.162Z,22.86
2022-08-14T09:00:09.954Z,22.92
2022-08-14T09:01:08.162Z,22.86
2022-08-14T09:02:10.199Z,23.04
2022-08-14T09:03:10.142Z,23.04
2022-08-14T09:04:17.281Z,22.99
2022-08-14T09:05:08.043Z,23.14
2022-08-14T09:07:00.685Z,23.11
2022-08-14T09:07:10.025Z,23.15
2022-08-14T09:08:08.209Z,23.09
2022-08-14T09:09:07.957Z,23.12
2022-08-14T09:10:08.040Z,23.15
2022-08-14T09:11:19.109Z,23.14
2022-08-14T09:12:07.896Z,23.20
2022-08-14T09:13:07.875Z,23.20
2022-08-14T09:14:07.856Z,23.40
2022-08-14T09:15:11.489Z,23.38
2022-08-14T09:16:18.524Z,23.43
2022-08-14T09:17:07.793Z,23.52
2022-08-14T09:18:07.771Z,23.55
2022-08-14T09:19:07.751Z,23.75
2022-08-14T09:20:07.730Z,23.64
2022-08-14T09:21:07.711Z,23.64
2022-08-14T09:22:32.983Z,23.67
2022-08-14T09:23:07.670Z,23.76
2022-08-14T09:24:28.442Z,23.82
2022-08-14T09:25:07.811Z,23.94
2022-08-14T09:26:21.145Z,23.95
2022-08-14T09:27:07.591Z,24.13
2022-08-14T09:28:07.570Z,24.35
2022-08-14T09:29:07.551Z,24.35
2022-08-14T09:30:13.139Z,24.12
2022-08-14T09:31:17.752Z,24.13
2022-08-14T09:32:26.900Z,24.23
2022-08-14T09:33:11.667Z,24.19
2022-08-14T09:34:19.884Z,24.08
2022-08-14T09:35:08.500Z,24.08
2022-08-14T09:36:07.409Z,23.98
2022-08-14T09:37:07.390Z,24.13
2022-08-14T09:38:07.369Z,24.16
2022-08-14T09:39:10.624Z,24.23
2022-08-14T09:40:07.372Z,24.14
2022-08-14T09:41:07.308Z,24.32
2022-08-14T09:42:21.586Z,24.39
2022-08-14T09:43:07.269Z,24.53
2022-08-14T09:44:07.248Z,24.47
2022-08-14T09:45:08.993Z,24.31
2022-08-14T09:46:07.209Z,24.31
2022-08-14T09:47:07.190Z,24.47
2022-08-14T09:48:07.168Z,24.50
2022-08-14T09:49:07.149Z,24.57
2022-08-14T09:50:07.129Z,24.63
2022-08-14T09:51:58.288Z,24.79
2022-08-14T09:52:48.759Z,24.87
2022-08-14T09:54:18.363Z,24.92
2022-08-14T09:54:46.543Z,24.88
2022-08-14T09:55:46.559Z,24.91
2022-08-14T09:56:46.497Z,24.82
2022-08-14T09:57:46.636Z,24.83
2022-08-14T09:58:46.456Z,25.07
2022-08-14T09:59:46.436Z,25.16
2022-08-14T10:00:46.417Z,25.35
2022-08-14T10:01:53.124Z,25.57
2022-08-14T10:02:46.565Z,25.49
2022-08-14T10:03:46.358Z,25.65
2022-08-14T10:04:49.924Z,25.56
2022-08-14T10:05:46.319Z,25.43
2022-08-14T10:06:46.301Z,25.42
2022-08-14T10:07:47.531Z,25.39
2022-08-14T10:08:50.664Z,25.32
2022-08-14T10:09:59.883Z,25.22
2022-08-14T10:11:01.563Z,25.44
2022-08-14T10:11:46.205Z,25.61
2022-08-14T10:12:46.470Z,25.49
2022-08-14T10:13:53.263Z,25.50
2022-08-14T10:14:53.222Z,25.54
2022-08-14T10:15:46.130Z,25.53
2022-08-14T10:16:46.112Z,25.61
2022-08-14T10:17:46.380Z,25.74
2022-08-14T10:18:46.074Z,25.98
2022-08-14T10:19:46.054Z,25.86
2022-08-14T10:20:49.838Z,25.87
2022-08-14T10:23:11.024Z,26.04
2022-08-14T10:23:13.057Z,25.89
2022-08-14T10:23:45.979Z,25.99
2022-08-14T10:24:45.962Z,26.02
2022-08-14T10:25:45.947Z,26.28
2022-08-14T10:26:45.924Z,26.29
2022-08-14T10:27:45.906Z,26.32
2022-08-14T10:29:14.128Z,26.35
2022-08-14T10:29:45.868Z,26.49
2022-08-14T10:30:45.849Z,26.69
2022-08-14T10:31:45.892Z,26.67
2022-08-14T10:32:51.114Z,26.89
2022-08-14T10:33:50.825Z,26.72
2022-08-14T10:34:45.776Z,26.43
2022-08-14T10:35:48.107Z,26.42
2022-08-14T10:36:48.009Z,26.44
2022-08-14T10:37:45.720Z,26.32
2022-08-14T10:38:51.879Z,26.61
2022-08-14T10:40:02.062Z,26.81
2022-08-14T10:40:52.272Z,26.87
2022-08-14T10:41:48.683Z,27.10
2022-08-14T10:42:45.898Z,26.81
2022-08-14T10:43:45.614Z,26.86
2022-08-14T10:44:45.598Z,26.99
2022-08-14T10:45:46.558Z,26.84
2022-08-14T10:47:41.474Z,26.74
2022-08-14T10:48:07.927Z,26.77
2022-08-14T10:48:45.950Z,26.84
2022-08-14T10:49:45.510Z,26.69
2022-08-14T10:50:45.493Z,27.04
2022-08-14T10:51:45.475Z,27.17
2022-08-14T10:52:45.728Z,27.16
2022-08-14T10:53:45.440Z,27.21
2022-08-14T10:54:47.457Z,27.50
2022-08-14T10:55:46.037Z,27.47
2022-08-14T10:56:45.388Z,27.71
2022-08-14T10:57:45.369Z,27.51
2022-08-14T10:58:45.353Z,27.29
2022-08-14T10:59:45.335Z,27.28
2022-08-14T11:00:47.223Z,27.28
2022-08-14T11:01:45.304Z,27.24
2022-08-14T11:02:54.489Z,27.17
2022-08-14T11:03:55.975Z,27.31
2022-08-14T11:04:45.321Z,27.24
2022-08-14T11:05:45.234Z,27.26
2022-08-14T11:06:45.219Z,27.05
2022-08-14T11:07:45.203Z,27.05
2022-08-14T11:08:45.566Z,27.23
2022-08-14T11:09:45.167Z,27.33
2022-08-14T11:10:45.152Z,27.57
2022-08-14T11:11:45.142Z,27.73
2022-08-14T11:12:45.190Z,27.39
2022-08-14T11:13:45.103Z,27.61
2022-08-14T11:14:45.083Z,27.54
2022-08-14T11:15:45.066Z,27.38
2022-08-14T11:16:53.329Z,27.50
2022-08-14T11:17:46.084Z,27.77
2022-08-14T11:18:45.014Z,27.82
2022-08-14T11:19:44.998Z,27.66
2022-08-14T11:20:44.982Z,27.85
2022-08-14T11:21:45.832Z,27.70
2022-08-14T11:22:56.674Z,27.98
2022-08-14T11:23:44.932Z,27.94
2022-08-14T11:24:54.575Z,27.82
2022-08-14T11:25:53.018Z,27.71
2022-08-14T11:26:44.883Z,27.80
2022-08-14T11:27:44.865Z,28.03
2022-08-14T11:28:48.190Z,27.84
2022-08-14T11:29:44.833Z,27.95
2022-08-14T11:30:50.273Z,28.10
2022-08-14T11:31:44.800Z,27.95
2022-08-14T11:32:44.925Z,27.85
2022-08-14T11:33:44.768Z,28.03
2022-08-14T11:34:44.756Z,28.33
2022-08-14T11:35:48.197Z,28.47
2022-08-14T11:37:03.957Z,28.44
2022-08-14T11:37:44.706Z,28.21
2022-08-14T11:38:44.965Z,28.19
2022-08-14T11:39:45.555Z,28.32
2022-08-14T11:40:46.783Z,28.43
2022-08-14T11:41:55.528Z,28.17
2022-08-14T11:43:07.845Z,28.28
2022-08-14T11:43:49.956Z,28.33
2022-08-14T11:44:45.297Z,28.47
2022-08-14T11:45:44.579Z,28.41
2022-08-14T11:46:44.565Z,28.56
2022-08-14T11:48:13.749Z,28.51
2022-08-14T11:49:02.737Z,28.13
2022-08-14T11:49:44.517Z,28.06
2022-08-14T11:50:44.506Z,28.16
2022-08-14T11:51:54.187Z,28.32
2022-08-14T11:52:44.475Z,28.23
2022-08-14T11:53:45.944Z,28.40
2022-08-14T11:54:44.489Z,28.40
2022-08-14T11:55:44.424Z,28.35
2022-08-14T11:56:44.408Z,28.44
2022-08-14T11:57:44.392Z,28.40
2022-08-14T11:58:44.379Z,28.25
2022-08-14T11:59:44.534Z,28.21
2022-08-14T12:00:45.971Z,28.33
2022-08-14T12:01:44.330Z,28.43
2022-08-14T12:03:03.096Z,28.48
2022-08-14T12:03:46.762Z,28.46
2022-08-14T12:04:44.350Z,28.59
2022-08-14T12:05:44.269Z,28.46
2022-08-14T12:06:44.257Z,28.11
2022-08-14T12:07:48.441Z,27.86
2022-08-14T12:08:44.227Z,28.07
2022-08-14T12:09:44.215Z,28.16
2022-08-14T12:10:44.282Z,28.11
2022-08-14T12:11:47.297Z,28.07
2022-08-14T12:12:44.166Z,27.77
2022-08-14T12:13:44.406Z,27.39
2022-08-14T12:14:44.423Z,27.28
2022-08-14T12:15:44.570Z,27.20
2022-08-14T12:16:44.104Z,27.32
2022-08-14T12:17:47.696Z,27.23
2022-08-14T12:18:44.818Z,27.29
2022-08-14T12:19:44.056Z,27.23
2022-08-14T12:20:45.911Z,27.31
2022-08-14T12:21:48.143Z,27.28
2022-08-14T12:22:44.195Z,27.26
2022-08-14T12:23:43.992Z,27.31
2022-08-14T12:24:43.978Z,27.20
2022-08-14T12:25:43.960Z,27.24
2022-08-14T12:26:43.946Z,27.20
2022-08-14T12:27:52.561Z,27.28
2022-08-14T12:28:59.800Z,27.17
2022-08-14T12:29:43.897Z,27.16
2022-08-14T12:30:44.041Z,27.20
2022-08-14T12:31:44.931Z,27.41
2022-08-14T12:32:43.850Z,27.33
2022-08-14T12:33:46.877Z,27.28
2022-08-14T12:34:45.075Z,27.43
2022-08-14T12:35:43.802Z,27.41
2022-08-14T12:36:43.786Z,27.50
2022-08-14T12:37:43.777Z,27.43
2022-08-14T12:38:44.994Z,27.24
2022-08-14T12:39:43.762Z,27.38
2022-08-14T12:40:43.725Z,27.28
2022-08-14T12:41:43.707Z,27.28
2022-08-14T12:42:47.544Z,27.23
2022-08-14T12:43:43.676Z,27.39
2022-08-14T12:44:43.660Z,27.51
2022-08-14T12:45:43.643Z,27.88
2022-08-14T12:46:46.528Z,27.70
2022-08-14T12:47:43.612Z,27.82
2022-08-14T12:48:43.597Z,28.03
2022-08-14T12:49:43.580Z,27.98
2022-08-14T12:50:43.567Z,28.07
2022-08-14T12:51:43.548Z,28.17
2022-08-14T12:53:01.838Z,27.96